Weather at Sargent Municipal Airport

Public forecast

Using degrees Fahrenheit for public forecast. Weather courtesy of forecast.io.

Closest aviation weather report (METAR) to Sargent Municipal Airport

Closest report is Evelyn Sharp Field, 17.4 nm (32.3 km) E. Retrieved 2022/01/24 09:53 UTC (44 minutes ago):

KODX 240953Z AUTO 29009KT 10SM SCT095 06/M03 A2970 RMK AO2 SLP063 T00611033

Closest aviation forecast (TAF) to Sargent Municipal Airport

Closest forecast is Kearney Regional Airport, 56.7 nm (105.0 km) SSE. Retrieved 2022/01/24 06:42 UTC (4 hours ago):

TAF KEAR 240540Z 2406/2506 29009KT P6SM OVC120 FM241100 29009KT P6SM OVC120 WS009/33040KT FM241400 32013G21KT P6SM FEW120 FEW250 FM241600 34016G30KT P6SM FEW030 SCT250 FM242100 35013KT P6SM BKN028 FM250100 02012KT P6SM BKN020